sensor_id;sensor_type;location;lat;lon;timestamp;pressure;altitude;pressure_sealevel;temperature;humidity
58761;BME280;44529;47.464;19.014;2023-04-08T00:03:01;100445.56;;;4.26;100.00
58761;BME280;44529;47.464;19.014;2023-04-08T00:06:03;100441.78;;;4.22;100.00
58761;BME280;44529;47.464;19.014;2023-04-08T00:09:06;100438.03;;;4.13;100.00
58761;BME280;44529;47.464;19.014;2023-04-08T00:12:09;100436.41;;;4.17;100.00
58761;BME280;44529;47.464;19.014;2023-04-08T00:15:11;100435.66;;;4.26;100.00
58761;BME280;44529;47.464;19.014;2023-04-08T00:18:15;100435.88;;;4.25;100.00
58761;BME280;44529;47.464;19.014;2023-04-08T00:21:18;100437.50;;;4.16;100.00
58761;BME280;44529;47.464;19.014;2023-04-08T00:24:22;100441.25;;;4.15;100.00
58761;BME280;44529;47.464;19.014;2023-04-08T00:27:24;100437.53;;;4.26;100.00
58761;BME280;44529;47.464;19.014;2023-04-08T00:30:27;100446.59;;;4.25;100.00
58761;BME280;44529;47.464;19.014;2023-04-08T00:33:30;100446.34;;;4.21;100.00
58761;BME280;44529;47.464;19.014;2023-04-08T00:36:32;100443.38;;;4.18;100.00
58761;BME280;44529;47.464;19.014;2023-04-08T00:39:36;100436.41;;;4.12;100.00
58761;BME280;44529;47.464;19.014;2023-04-08T00:42:38;100444.69;;;4.10;100.00
58761;BME280;44529;47.464;19.014;2023-04-08T00:45:41;100439.06;;;4.12;100.00
58761;BME280;44529;47.464;19.014;2023-04-08T00:48:43;100435.88;;;4.15;100.00
58761;BME280;44529;47.464;19.014;2023-04-08T00:51:45;100443.91;;;4.15;100.00
58761;BME280;44529;47.464;19.014;2023-04-08T00:54:48;100445.78;;;4.14;100.00
58761;BME280;44529;47.464;19.014;2023-04-08T00:57:50;100449.78;;;4.06;100.00
58761;BME280;44529;47.464;19.014;2023-04-08T01:01:02;100448.69;;;4.02;100.00
58761;BME280;44529;47.464;19.014;2023-04-08T01:04:24;100444.97;;;4.08;100.00
58761;BME280;44529;47.464;19.014;2023-04-08T01:07:37;100442.28;;;4.08;100.00
58761;BME280;44529;47.464;19.014;2023-04-08T01:10:44;100447.09;;;4.12;100.00
58761;BME280;44529;47.464;19.014;2023-04-08T01:13:53;100446.03;;;4.07;100.00
58761;BME280;44529;47.464;19.014;2023-04-08T01:16:57;100435.06;;;4.09;100.00
58761;BME280;44529;47.464;19.014;2023-04-08T01:20:02;100447.09;;;4.06;100.00
58761;BME280;44529;47.464;19.014;2023-04-08T01:26:25;100446.84;;;4.13;100.00
58761;BME280;44529;47.464;19.014;2023-04-08T01:29:28;100445.50;;;4.11;100.00
58761;BME280;44529;47.464;19.014;2023-04-08T01:32:33;100444.69;;;4.10;100.00
58761;BME280;44529;47.464;19.014;2023-04-08T01:35:36;100446.84;;;4.13;100.00
58761;BME280;44529;47.464;19.014;2023-04-08T01:38:39;100445.50;;;4.16;100.00
58761;BME280;44529;47.464;19.014;2023-04-08T01:41:42;100443.38;;;4.13;100.00
58761;BME280;44529;47.464;19.014;2023-04-08T01:44:45;100446.34;;;4.21;100.00
58761;BME280;44529;47.464;19.014;2023-04-08T01:47:49;100446.84;;;4.08;100.00
58761;BME280;44529;47.464;19.014;2023-04-08T01:50:54;100447.34;;;4.05;100.00
58761;BME280;44529;47.464;19.014;2023-04-08T01:53:57;100442.28;;;4.08;100.00
58761;BME280;44529;47.464;19.014;2023-04-08T01:57:03;100438.28;;;4.11;100.00
58761;BME280;44529;47.464;19.014;2023-04-08T02:00:11;100434.25;;;4.08;100.00
58761;BME280;44529;47.464;19.014;2023-04-08T02:03:22;100440.69;;;4.18;100.00
58761;BME280;44529;47.464;19.014;2023-04-08T02:06:27;100438.56;;;4.20;100.00
58761;BME280;44529;47.464;19.014;2023-04-08T02:09:30;100429.75;;;4.29;100.00
58761;BME280;44529;47.464;19.014;2023-04-08T02:12:33;100437.53;;;4.36;100.00
58761;BME280;44529;47.464;19.014;2023-04-08T02:15:37;100434.84;;;4.26;100.00
58761;BME280;44529;47.464;19.014;2023-04-08T02:18:44;100428.69;;;4.20;100.00
58761;BME280;44529;47.464;19.014;2023-04-08T02:21:48;100437.78;;;4.19;100.00
58761;BME280;44529;47.464;19.014;2023-04-08T02:24:54;100438.28;;;4.16;100.00
58761;BME280;44529;47.464;19.014;2023-04-08T02:27:58;100431.88;;;4.17;100.00
58761;BME280;44529;47.464;19.014;2023-04-08T02:31:02;100438.28;;;4.16;100.00
58761;BME280;44529;47.464;19.014;2023-04-08T02:34:09;100439.63;;;4.08;100.00
58761;BME280;44529;47.464;19.014;2023-04-08T02:37:12;100437.50;;;4.16;100.00
58761;BME280;44529;47.464;19.014;2023-04-08T02:40:41;100434.53;;;4.12;100.00
58761;BME280;44529;47.464;19.014;2023-04-08T02:43:43;100432.69;;;4.13;100.00
58761;BME280;44529;47.464;19.014;2023-04-08T02:46:45;100431.59;;;4.14;100.00
58761;BME280;44529;47.464;19.014;2023-04-08T02:49:48;100427.31;;;4.18;100.00
58761;BME280;44529;47.464;19.014;2023-04-08T02:52:54;100434.84;;;4.21;100.00
58761;BME280;44529;47.464;19.014;2023-04-08T02:55:57;100435.62;;;4.16;100.00
58761;BME280;44529;47.464;19.014;2023-04-08T02:58:59;100434.31;;;4.19;100.00
58761;BME280;44529;47.464;19.014;2023-04-08T03:02:02;100432.91;;;4.11;100.00
58761;BME280;44529;47.464;19.014;2023-04-08T03:05:04;100431.84;;;4.02;100.00
58761;BME280;44529;47.464;19.014;2023-04-08T03:08:07;100444.41;;;4.01;100.00
58761;BME280;44529;47.464;19.014;2023-04-08T03:11:09;100437.69;;;3.99;100.00
58761;BME280;44529;47.464;19.014;2023-04-08T03:14:12;100438.78;;;3.98;100.00
58761;BME280;44529;47.464;19.014;2023-04-08T03:17:14;100433.72;;;4.06;100.00
58761;BME280;44529;47.464;19.014;2023-04-08T03:20:16;100435.31;;;4.02;100.00
58761;BME280;44529;47.464;19.014;2023-04-08T03:23:19;100446.31;;;4.06;100.00
58761;BME280;44529;47.464;19.014;2023-04-08T03:26:21;100441.50;;;4.08;100.00
58761;BME280;44529;47.464;19.014;2023-04-08T03:29:24;100448.69;;;4.02;100.00
58761;BME280;44529;47.464;19.014;2023-04-08T03:32:26;100445.50;;;4.11;100.00
58761;BME280;44529;47.464;19.014;2023-04-08T03:35:29;100451.38;;;4.02;100.00
58761;BME280;44529;47.464;19.014;2023-04-08T03:38:31;100447.34;;;4.05;100.00
58761;BME280;44529;47.464;19.014;2023-04-08T03:41:34;100452.44;;;4.01;100.00
58761;BME280;44529;47.464;19.014;2023-04-08T03:44:36;100458.31;;;4.03;100.00
58761;BME280;44529;47.464;19.014;2023-04-08T03:47:38;100454.06;;;4.07;100.00
58761;BME280;44529;47.464;19.014;2023-04-08T03:50:41;100456.44;;;4.04;100.00
58761;BME280;44529;47.464;19.014;2023-04-08T03:53:43;100467.94;;;4.04;100.00
58761;BME280;44529;47.464;19.014;2023-04-08T03:56:46;100464.28;;;4.21;100.00
58761;BME280;44529;47.464;19.014;2023-04-08T03:59:48;100467.50;;;4.28;100.00
58761;BME280;44529;47.464;19.014;2023-04-08T04:02:51;100473.34;;;4.15;100.00
58761;BME280;44529;47.464;19.014;2023-04-08T04:05:54;100476.59;;;4.22;100.00
58761;BME280;44529;47.464;19.014;2023-04-08T04:08:56;100473.91;;;4.22;100.00
58761;BME280;44529;47.464;19.014;2023-04-08T04:11:59;100474.66;;;4.12;100.00
58761;BME280;44529;47.464;19.014;2023-04-08T04:15:01;100478.69;;;4.10;100.00
58761;BME280;44529;47.464;19.014;2023-04-08T04:18:04;100484.28;;;4.08;100.00
58761;BME280;44529;47.464;19.014;2023-04-08T04:21:07;100489.97;;;4.22;100.00
58761;BME280;44529;47.464;19.014;2023-04-08T04:24:09;100486.22;;;4.23;100.00
58761;BME280;44529;47.464;19.014;2023-04-08T04:27:11;100483.81;;;4.21;100.00
58761;BME280;44529;47.464;19.014;2023-04-08T04:30:14;100492.62;;;4.17;100.00
58761;BME280;44529;47.464;19.014;2023-04-08T04:33:16;100489.91;;;4.12;100.00
58761;BME280;44529;47.464;19.014;2023-04-08T04:36:19;100488.34;;;4.16;100.00
58761;BME280;44529;47.464;19.014;2023-04-08T04:39:22;100490.50;;;4.19;100.00
58761;BME280;44529;47.464;19.014;2023-04-08T04:42:24;100493.41;;;4.17;100.00
58761;BME280;44529;47.464;19.014;2023-04-08T04:45:27;100492.59;;;4.12;100.00
58761;BME280;44529;47.464;19.014;2023-04-08T04:48:29;100493.69;;;4.16;100.00
58761;BME280;44529;47.464;19.014;2023-04-08T04:51:32;100485.91;;;4.09;100.00
58761;BME280;44529;47.464;19.014;2023-04-08T04:54:34;100494.19;;;4.07;100.00
58761;BME280;44529;47.464;19.014;2023-04-08T04:57:37;100489.69;;;4.13;100.00
58761;BME280;44529;47.464;19.014;2023-04-08T05:00:39;100495.28;;;4.06;100.00
58761;BME280;44529;47.464;19.014;2023-04-08T05:03:42;100501.66;;;4.05;100.00
58761;BME280;44529;47.464;19.014;2023-04-08T05:06:44;100501.97;;;4.14;100.00
58761;BME280;44529;47.464;19.014;2023-04-08T05:09:47;100499.56;;;4.07;100.00
58761;BME280;44529;47.464;19.014;2023-04-08T05:12:49;100496.91;;;4.13;100.00
58761;BME280;44529;47.464;19.014;2023-04-08T05:15:52;100502.50;;;4.06;100.00
58761;BME280;44529;47.464;19.014;2023-04-08T05:18:54;100512.16;;;4.17;100.00
58761;BME280;44529;47.464;19.014;2023-04-08T05:21:57;100514.28;;;4.15;100.00
58761;BME280;44529;47.464;19.014;2023-04-08T05:24:59;100516.09;;;4.04;100.00
58761;BME280;44529;47.464;19.014;2023-04-08T05:28:02;100511.37;;;4.22;100.00
58761;BME280;44529;47.464;19.014;2023-04-08T05:31:05;100515.37;;;4.19;100.00
58761;BME280;44529;47.464;19.014;2023-04-08T05:34:07;100523.66;;;4.18;100.00
58761;BME280;44529;47.464;19.014;2023-04-08T05:37:10;100529.00;;;4.18;100.00
58761;BME280;44529;47.464;19.014;2023-04-08T05:40:12;100525.53;;;4.17;100.00
58761;BME280;44529;47.464;19.014;2023-04-08T05:43:15;100525.84;;;4.26;100.00
58761;BME280;44529;47.464;19.014;2023-04-08T05:46:17;100534.38;;;4.23;100.00
58761;BME280;44529;47.464;19.014;2023-04-08T05:49:19;100541.09;;;4.20;100.00
58761;BME280;44529;47.464;19.014;2023-04-08T05:52:22;100540.50;;;4.13;100.00
58761;BME280;44529;47.464;19.014;2023-04-08T05:55:25;100533.81;;;4.11;100.00
58761;BME280;44529;47.464;19.014;2023-04-08T05:58:27;100546.66;;;4.14;100.00
58761;BME280;44529;47.464;19.014;2023-04-08T06:01:29;100538.87;;;4.12;100.00
58761;BME280;44529;47.464;19.014;2023-04-08T06:04:32;100549.63;;;4.17;100.00
58761;BME280;44529;47.464;19.014;2023-04-08T06:07:34;100542.37;;;4.18;100.00
58761;BME280;44529;47.464;19.014;2023-04-08T06:10:37;100541.31;;;4.14;100.00
58761;BME280;44529;47.464;19.014;2023-04-08T06:13:40;100553.09;;;4.13;100.00
58761;BME280;44529;47.464;19.014;2023-04-08T06:16:43;100549.06;;;4.10;100.00
58761;BME280;44529;47.464;19.014;2023-04-08T06:19:46;100556.84;;;4.17;100.00
58761;BME280;44529;47.464;19.014;2023-04-08T06:22:48;100549.88;;;4.16;100.00
58761;BME280;44529;47.464;19.014;2023-04-08T06:25:52;100552.81;;;4.14;100.00
58761;BME280;44529;47.464;19.014;2023-04-08T06:28:55;100554.72;;;4.24;100.00
58761;BME280;44529;47.464;19.014;2023-04-08T06:31:57;100561.63;;;4.10;100.00
58761;BME280;44529;47.464;19.014;2023-04-08T06:35:00;100560.59;;;4.16;100.00
58761;BME280;44529;47.464;19.014;2023-04-08T06:38:03;100557.91;;;4.16;100.00
58761;BME280;44529;47.464;19.014;2023-04-08T06:41:06;100570.72;;;4.08;100.00
58761;BME280;44529;47.464;19.014;2023-04-08T06:44:08;100567.53;;;4.17;100.00
58761;BME280;44529;47.464;19.014;2023-04-08T06:47:11;100576.34;;;4.12;100.00
58761;BME280;44529;47.464;19.014;2023-04-08T06:50:13;100575.00;;;4.10;100.00
58761;BME280;44529;47.464;19.014;2023-04-08T06:53:16;100571.22;;;4.05;100.00
58761;BME280;44529;47.464;19.014;2023-04-08T06:56:18;100571.75;;;4.02;100.00
58761;BME280;44529;47.464;19.014;2023-04-08T06:59:22;100573.38;;;4.03;100.00
58761;BME280;44529;47.464;19.014;2023-04-08T07:02:25;100575.00;;;4.10;100.00
58761;BME280;44529;47.464;19.014;2023-04-08T07:05:28;100572.87;;;4.06;100.00
58761;BME280;44529;47.464;19.014;2023-04-08T07:08:30;100573.19;;;4.20;100.00
58761;BME280;44529;47.464;19.014;2023-04-08T07:11:33;100575.06;;;4.20;100.00
58761;BME280;44529;47.464;19.014;2023-04-08T07:14:35;100578.31;;;4.27;100.00
58761;BME280;44529;47.464;19.014;2023-04-08T07:17:38;100579.37;;;4.26;100.00
58761;BME280;44529;47.464;19.014;2023-04-08T07:20:40;100586.00;;;4.18;100.00
58761;BME280;44529;47.464;19.014;2023-04-08T07:23:43;100591.38;;;4.18;100.00
58761;BME280;44529;47.464;19.014;2023-04-08T07:26:45;100592.16;;;4.14;100.00
58761;BME280;44529;47.464;19.014;2023-04-08T07:29:51;100598.84;;;4.16;100.00
58761;BME280;44529;47.464;19.014;2023-04-08T07:32:55;100602.94;;;4.29;100.00
58761;BME280;44529;47.464;19.014;2023-04-08T07:36:01;100596.47;;;4.25;100.00
58761;BME280;44529;47.464;19.014;2023-04-08T07:39:04;100611.19;;;4.22;100.00
58761;BME280;44529;47.464;19.014;2023-04-08T07:42:06;100618.97;;;4.19;100.00
58761;BME280;44529;47.464;19.014;2023-04-08T07:45:09;100608.25;;;4.19;100.00
58761;BME280;44529;47.464;19.014;2023-04-08T07:48:11;100622.97;;;4.21;100.00
58761;BME280;44529;47.464;19.014;2023-04-08T07:51:14;100622.94;;;4.16;100.00
58761;BME280;44529;47.464;19.014;2023-04-08T07:54:16;100623.81;;;4.27;100.00
58761;BME280;44529;47.464;19.014;2023-04-08T07:57:19;100624.88;;;4.26;100.00
58761;BME280;44529;47.464;19.014;2023-04-08T08:00:21;100629.97;;;4.27;100.00
58761;BME280;44529;47.464;19.014;2023-04-08T08:03:24;100625.69;;;4.26;100.00
58761;BME280;44529;47.464;19.014;2023-04-08T08:06:26;100627.06;;;4.34;100.00
58761;BME280;44529;47.464;19.014;2023-04-08T08:09:29;100628.41;;;4.37;100.00
58761;BME280;44529;47.464;19.014;2023-04-08T08:12:33;100625.19;;;4.34;100.00
58761;BME280;44529;47.464;19.014;2023-04-08T08:15:35;100631.31;;;4.30;100.00
58761;BME280;44529;47.464;19.014;2023-04-08T08:18:38;100633.72;;;4.31;100.00
58761;BME280;44529;47.464;19.014;2023-04-08T08:21:41;100639.97;;;4.47;100.00
58761;BME280;44529;47.464;19.014;2023-04-08T08:24:44;100637.59;;;4.51;100.00
58761;BME280;44529;47.464;19.014;2023-04-08T08:27:48;100641.53;;;4.43;100.00
58761;BME280;44529;47.464;19.014;2023-04-08T08:30:52;100639.19;;;4.52;100.00
58761;BME280;44529;47.464;19.014;2023-04-08T08:33:54;100641.13;;;4.67;100.00
58761;BME280;44529;47.464;19.014;2023-04-08T08:36:56;100646.78;;;4.70;100.00
58761;BME280;44529;47.464;19.014;2023-04-08T08:39:59;100642.72;;;4.68;100.00
58761;BME280;44529;47.464;19.014;2023-04-08T08:43:02;100657.47;;;4.65;100.00
58761;BME280;44529;47.464;19.014;2023-04-08T08:46:09;100651.56;;;4.68;100.00
58761;BME280;44529;47.464;19.014;2023-04-08T08:49:12;100658.41;;;4.44;100.00
58761;BME280;44529;47.464;19.014;2023-04-08T08:52:15;100658.22;;;4.55;100.00
58761;BME280;44529;47.464;19.014;2023-04-08T08:55:19;100662.19;;;4.48;100.00
58761;BME280;44529;47.464;19.014;2023-04-08T08:58:42;100663.06;;;4.58;100.00
58761;BME280;44529;47.464;19.014;2023-04-08T09:01:44;100667.37;;;4.70;100.00
58761;BME280;44529;47.464;19.014;2023-04-08T09:04:56;100670.59;;;4.72;100.00
58761;BME280;44529;47.464;19.014;2023-04-08T09:07:59;100664.47;;;4.81;100.00
58761;BME280;44529;47.464;19.014;2023-04-08T09:11:15;100676.00;;;4.82;100.00
58761;BME280;44529;47.464;19.014;2023-04-08T09:14:22;100678.97;;;4.85;100.00
58761;BME280;44529;47.464;19.014;2023-04-08T09:17:33;100674.37;;;4.81;100.00
58761;BME280;44529;47.464;19.014;2023-04-08T09:20:36;100678.44;;;4.83;100.00
58761;BME280;44529;47.464;19.014;2023-04-08T09:23:50;100681.91;;;4.89;100.00
58761;BME280;44529;47.464;19.014;2023-04-08T09:26:53;100680.87;;;4.90;100.00
58761;BME280;44529;47.464;19.014;2023-04-08T09:30:12;100685.94;;;4.92;100.00
58761;BME280;44529;47.464;19.014;2023-04-08T09:33:15;100689.47;;;4.97;100.00
58761;BME280;44529;47.464;19.014;2023-04-08T09:36:18;100693.75;;;5.08;100.00
58761;BME280;44529;47.464;19.014;2023-04-08T09:39:21;100696.19;;;5.15;100.00
58761;BME280;44529;47.464;19.014;2023-04-08T09:42:24;100696.72;;;5.12;100.00
58761;BME280;44529;47.464;19.014;2023-04-08T09:45:27;100698.59;;;5.11;100.00
58761;BME280;44529;47.464;19.014;2023-04-08T09:48:42;100698.06;;;5.04;100.00
58761;BME280;44529;47.464;19.014;2023-04-08T09:51:52;100701.00;;;5.08;100.00
58761;BME280;44529;47.464;19.014;2023-04-08T09:55:01;100700.22;;;5.12;100.00
58761;BME280;44529;47.464;19.014;2023-04-08T09:58:15;100696.19;;;5.15;100.00
58761;BME280;44529;47.464;19.014;2023-04-08T10:01:23;100706.12;;;5.09;100.00
58761;BME280;44529;47.464;19.014;2023-04-08T10:04:30;100700.47;;;5.11;100.00
58761;BME280;44529;47.464;19.014;2023-04-08T10:07:36;100710.12;;;5.12;100.00
58761;BME280;44529;47.464;19.014;2023-04-08T10:10:40;100709.84;;;5.08;100.00
58761;BME280;44529;47.464;19.014;2023-04-08T10:13:43;100713.91;;;5.16;100.00
58761;BME280;44529;47.464;19.014;2023-04-08T10:16:45;100709.91;;;5.29;100.00
58761;BME280;44529;47.464;19.014;2023-04-08T10:19:48;100704.53;;;5.34;100.00
58761;BME280;44529;47.464;19.014;2023-04-08T10:22:51;100712.84;;;5.27;100.00
58761;BME280;44529;47.464;19.014;2023-04-08T10:25:53;100705.91;;;5.31;100.00
58761;BME280;44529;47.464;19.014;2023-04-08T10:32:28;100709.09;;;5.33;100.00
58761;BME280;44529;47.464;19.014;2023-04-08T10:35:34;100713.66;;;5.28;100.00
58761;BME280;44529;47.464;19.014;2023-04-08T10:38:41;100702.91;;;5.28;100.00
58761;BME280;44529;47.464;19.014;2023-04-08T10:41:49;100715.25;;;5.24;100.00
58761;BME280;44529;47.464;19.014;2023-04-08T10:44:51;100705.06;;;5.21;100.00
58761;BME280;44529;47.464;19.014;2023-04-08T10:47:54;100709.66;;;5.35;100.00
58761;BME280;44529;47.464;19.014;2023-04-08T10:51:01;100708.03;;;5.39;100.00
58761;BME280;44529;47.464;19.014;2023-04-08T10:54:10;100705.94;;;5.41;100.00
58761;BME280;44529;47.464;19.014;2023-04-08T10:57:12;100711.81;;;5.38;100.00
58761;BME280;44529;47.464;19.014;2023-04-08T11:03:35;100704.31;;;5.51;100.00
58761;BME280;44529;47.464;19.014;2023-04-08T11:06:41;100716.41;;;5.63;100.00
58761;BME280;44529;47.464;19.014;2023-04-08T11:09:43;100711.31;;;5.67;100.00
58761;BME280;44529;47.464;19.014;2023-04-08T11:12:46;100702.44;;;5.66;97.97
58761;BME280;44529;47.464;19.014;2023-04-08T11:15:49;100709.72;;;5.61;98.88
58761;BME280;44529;47.464;19.014;2023-04-08T11:18:53;100710.50;;;5.71;96.38
58761;BME280;44529;47.464;19.014;2023-04-08T11:21:57;100710.78;;;5.65;97.08
58761;BME280;44529;47.464;19.014;2023-04-08T11:25:00;100707.81;;;5.56;98.31
58761;BME280;44529;47.464;19.014;2023-04-08T11:28:03;100713.72;;;5.48;98.70
58761;BME280;44529;47.464;19.014;2023-04-08T11:31:06;100713.72;;;5.48;99.17
58761;BME280;44529;47.464;19.014;2023-04-08T11:34:10;100712.06;;;5.47;98.98
58761;BME280;44529;47.464;19.014;2023-04-08T11:37:12;100719.34;;;5.57;98.84
58761;BME280;44529;47.464;19.014;2023-04-08T11:40:19;100717.47;;;5.52;98.30
58761;BME280;44529;47.464;19.014;2023-04-08T11:43:24;100721.22;;;5.71;97.08
58761;BME280;44529;47.464;19.014;2023-04-08T11:46:27;100724.47;;;5.79;96.92
58761;BME280;44529;47.464;19.014;2023-04-08T11:49:43;100725.53;;;5.67;96.78
58761;BME280;44529;47.464;19.014;2023-04-08T11:52:47;100721.22;;;5.71;96.80
58761;BME280;44529;47.464;19.014;2023-04-08T11:55:51;100721.25;;;5.77;98.93
58761;BME280;44529;47.464;19.014;2023-04-08T11:58:53;100718.81;;;5.85;98.15
58761;BME280;44529;47.464;19.014;2023-04-08T12:01:55;100719.34;;;5.72;98.30
58761;BME280;44529;47.464;19.014;2023-04-08T12:04:58;100717.75;;;5.66;99.85
58761;BME280;44529;47.464;19.014;2023-04-08T12:08:01;100724.97;;;5.65;100.00
58761;BME280;44529;47.464;19.014;2023-04-08T12:11:04;100713.72;;;5.63;100.00
58761;BME280;44529;47.464;19.014;2023-04-08T12:14:20;100711.31;;;5.57;100.00
58761;BME280;44529;47.464;19.014;2023-04-08T12:17:28;100719.88;;;5.54;100.00
58761;BME280;44529;47.464;19.014;2023-04-08T12:20:30;100715.31;;;5.64;100.00
58761;BME280;44529;47.464;19.014;2023-04-08T12:23:33;100720.69;;;5.64;100.00
58761;BME280;44529;47.464;19.014;2023-04-08T12:26:35;100725.53;;;5.62;100.00
58761;BME280;44529;47.464;19.014;2023-04-08T12:29:37;100717.22;;;5.64;100.00
58761;BME280;44529;47.464;19.014;2023-04-08T12:32:40;100719.09;;;5.63;100.00
58761;BME280;44529;47.464;19.014;2023-04-08T12:35:44;100713.72;;;5.68;100.00
58761;BME280;44529;47.464;19.014;2023-04-08T12:38:46;100711.56;;;5.86;100.00
58761;BME280;44529;47.464;19.014;2023-04-08T12:41:48;100713.78;;;5.99;100.00
58761;BME280;44529;47.464;19.014;2023-04-08T12:44:50;100715.09;;;6.22;99.34
58761;BME280;44529;47.464;19.014;2023-04-08T12:47:53;100710.25;;;6.24;98.17
58761;BME280;44529;47.464;19.014;2023-04-08T12:50:56;100712.91;;;6.44;95.98
58761;BME280;44529;47.464;19.014;2023-04-08T12:54:00;100706.75;;;6.39;92.43
58761;BME280;44529;47.464;19.014;2023-04-08T12:57:04;100713.19;;;6.33;93.70
58761;BME280;44529;47.464;19.014;2023-04-08T13:00:07;100714.81;;;6.34;98.84
58761;BME280;44529;47.464;19.014;2023-04-08T13:03:10;100708.37;;;6.14;98.34
58761;BME280;44529;47.464;19.014;2023-04-08T13:06:13;100711.63;;;5.96;99.87
58761;BME280;44529;47.464;19.014;2023-04-08T13:09:15;100712.16;;;5.98;100.00
58761;BME280;44529;47.464;19.014;2023-04-08T13:12:17;100710.53;;;6.07;100.00
58761;BME280;44529;47.464;19.014;2023-04-08T13:15:20;100711.06;;;6.19;100.00
58761;BME280;44529;47.464;19.014;2023-04-08T13:18:22;100708.09;;;6.31;100.00
58761;BME280;44529;47.464;19.014;2023-04-08T13:21:24;100708.91;;;6.32;100.00
58761;BME280;44529;47.464;19.014;2023-04-08T13:24:27;100705.66;;;6.30;99.85
58761;BME280;44529;47.464;19.014;2023-04-08T13:27:30;100710.78;;;6.26;100.00
58761;BME280;44529;47.464;19.014;2023-04-08T13:30:32;100712.16;;;6.08;99.43
58761;BME280;44529;47.464;19.014;2023-04-08T13:33:34;100702.47;;;5.92;100.00
58761;BME280;44529;47.464;19.014;2023-04-08T13:36:37;100703.28;;;6.03;100.00
58761;BME280;44529;47.464;19.014;2023-04-08T13:39:39;100707.84;;;6.02;100.00
58761;BME280;44529;47.464;19.014;2023-04-08T13:42:42;100699.00;;;6.02;100.00
58761;BME280;44529;47.464;19.014;2023-04-08T13:45:44;100700.88;;;5.96;99.58
58761;BME280;44529;47.464;19.014;2023-04-08T13:48:46;100699.28;;;5.95;100.00
58761;BME280;44529;47.464;19.014;2023-04-08T13:51:48;100699.25;;;6.10;100.00
58761;BME280;44529;47.464;19.014;2023-04-08T13:54:51;100701.13;;;6.15;100.00
58761;BME280;44529;47.464;19.014;2023-04-08T13:57:53;100700.84;;;6.27;100.00
58761;BME280;44529;47.464;19.014;2023-04-08T14:00:56;100701.63;;;6.37;100.00
58761;BME280;44529;47.464;19.014;2023-04-08T14:03:58;100699.22;;;6.46;100.00
58761;BME280;44529;47.464;19.014;2023-04-08T14:07:00;100693.53;;;6.53;100.00
58761;BME280;44529;47.464;19.014;2023-04-08T14:10:04;100698.63;;;6.59;98.74
58761;BME280;44529;47.464;19.014;2023-04-08T14:13:06;100701.81;;;6.66;96.46
58761;BME280;44529;47.464;19.014;2023-04-08T14:16:09;100698.34;;;6.66;94.90
58761;BME280;44529;47.464;19.014;2023-04-08T14:19:11;100698.84;;;6.68;97.79
58761;BME280;44529;47.464;19.014;2023-04-08T14:22:13;100704.22;;;6.73;96.17
58761;BME280;44529;47.464;19.014;2023-04-08T14:25:16;100699.41;;;6.70;94.44
58761;BME280;44529;47.464;19.014;2023-04-08T14:28:19;100709.62;;;6.63;96.57
58761;BME280;44529;47.464;19.014;2023-04-08T14:31:21;100706.19;;;6.47;94.86
58761;BME280;44529;47.464;19.014;2023-04-08T14:34:24;100703.22;;;6.48;97.86
58761;BME280;44529;47.464;19.014;2023-04-08T14:37:26;100708.88;;;6.42;95.98
58761;BME280;44529;47.464;19.014;2023-04-08T14:40:29;100708.34;;;6.35;96.47
58761;BME280;44529;47.464;19.014;2023-04-08T14:43:31;100709.97;;;6.31;97.42
58761;BME280;44529;47.464;19.014;2023-04-08T14:46:34;100710.53;;;6.22;96.83
58761;BME280;44529;47.464;19.014;2023-04-08T14:49:36;100710.53;;;6.28;95.70
58761;BME280;44529;47.464;19.014;2023-04-08T14:52:38;100708.63;;;6.33;98.34
58761;BME280;44529;47.464;19.014;2023-04-08T14:55:40;100715.03;;;6.42;98.16
58761;BME280;44529;47.464;19.014;2023-04-08T14:58:43;100706.19;;;6.47;94.05
58761;BME280;44529;47.464;19.014;2023-04-08T15:01:45;100705.09;;;6.43;94.62
58761;BME280;44529;47.464;19.014;2023-04-08T15:04:48;100699.44;;;6.49;95.77
58761;BME280;44529;47.464;19.014;2023-04-08T15:07:50;100704.03;;;6.49;96.69
58761;BME280;44529;47.464;19.014;2023-04-08T15:10:53;100696.81;;;6.34;96.46
58761;BME280;44529;47.464;19.014;2023-04-08T15:13:55;100697.66;;;6.14;97.81
58761;BME280;44529;47.464;19.014;2023-04-08T15:16:57;100704.09;;;6.13;98.31
58761;BME280;44529;47.464;19.014;2023-04-08T15:19:59;100708.66;;;6.13;100.00
58761;BME280;44529;47.464;19.014;2023-04-08T15:23:02;100708.94;;;6.06;99.80
58761;BME280;44529;47.464;19.014;2023-04-08T15:26:04;100707.87;;;6.12;98.10
58761;BME280;44529;47.464;19.014;2023-04-08T15:29:07;100708.37;;;6.04;98.21
58761;BME280;44529;47.464;19.014;2023-04-08T15:32:09;100704.66;;;6.00;100.00
58761;BME280;44529;47.464;19.014;2023-04-08T15:35:12;100708.13;;;6.01;100.00
58761;BME280;44529;47.464;19.014;2023-04-08T15:38:14;100712.69;;;6.00;100.00
58761;BME280;44529;47.464;19.014;2023-04-08T15:41:17;100716.47;;;5.99;100.00
58761;BME280;44529;47.464;19.014;2023-04-08T15:44:20;100719.66;;;6.11;100.00
58761;BME280;44529;47.464;19.014;2023-04-08T15:47:23;100723.41;;;6.10;99.83
58761;BME280;44529;47.464;19.014;2023-04-08T15:50:27;100718.59;;;6.02;100.00
58761;BME280;44529;47.464;19.014;2023-04-08T15:53:31;100718.84;;;6.11;99.83
58761;BME280;44529;47.464;19.014;2023-04-08T15:56:33;100720.72;;;6.15;100.00
58761;BME280;44529;47.464;19.014;2023-04-08T15:59:35;100722.88;;;6.23;95.32
58761;BME280;44529;47.464;19.014;2023-04-08T16:02:38;100726.09;;;6.20;96.10